sensor_id;sensor_type;location;lat;lon;timestamp;temperature;humidity
25436;DHT22;13363;52.772;-3.890;2023-03-01T00:01:31;9.30;99.90
25436;DHT22;13363;52.772;-3.890;2023-03-01T00:03:58;9.30;99.90
25436;DHT22;13363;52.772;-3.890;2023-03-01T00:06:25;9.20;99.90
25436;DHT22;13363;52.772;-3.890;2023-03-01T00:08:51;9.20;99.90
25436;DHT22;13363;52.772;-3.890;2023-03-01T00:11:25;9.20;99.90
25436;DHT22;13363;52.772;-3.890;2023-03-01T00:13:54;9.20;99.90
25436;DHT22;13363;52.772;-3.890;2023-03-01T00:16:26;9.20;99.90
25436;DHT22;13363;52.772;-3.890;2023-03-01T00:18:56;9.20;99.90
25436;DHT22;13363;52.772;-3.890;2023-03-01T00:21:23;9.20;99.90
25436;DHT22;13363;52.772;-3.890;2023-03-01T00:23:49;9.20;99.90
25436;DHT22;13363;52.772;-3.890;2023-03-01T00:26:17;9.20;99.90
25436;DHT22;13363;52.772;-3.890;2023-03-01T00:28:43;9.10;99.90
25436;DHT22;13363;52.772;-3.890;2023-03-01T00:31:20;9.20;99.90
25436;DHT22;13363;52.772;-3.890;2023-03-01T00:33:47;9.20;99.90
25436;DHT22;13363;52.772;-3.890;2023-03-01T00:36:14;9.20;99.90
25436;DHT22;13363;52.772;-3.890;2023-03-01T00:38:43;9.20;99.90
25436;DHT22;13363;52.772;-3.890;2023-03-01T00:41:14;9.20;99.90
25436;DHT22;13363;52.772;-3.890;2023-03-01T00:43:41;9.20;99.90
25436;DHT22;13363;52.772;-3.890;2023-03-01T00:46:15;9.20;99.90
25436;DHT22;13363;52.772;-3.890;2023-03-01T00:48:41;9.30;99.90
25436;DHT22;13363;52.772;-3.890;2023-03-01T00:53:35;9.20;99.90
25436;DHT22;13363;52.772;-3.890;2023-03-01T00:56:01;9.20;99.90
25436;DHT22;13363;52.772;-3.890;2023-03-01T00:58:27;9.20;99.90
25436;DHT22;13363;52.772;-3.890;2023-03-01T01:00:53;9.20;99.90
25436;DHT22;13363;52.772;-3.890;2023-03-01T01:03:19;9.20;99.90
25436;DHT22;13363;52.772;-3.890;2023-03-01T01:05:45;9.20;99.90
25436;DHT22;13363;52.772;-3.890;2023-03-01T01:08:11;9.10;99.90
25436;DHT22;13363;52.772;-3.890;2023-03-01T01:10:37;9.20;99.90
25436;DHT22;13363;52.772;-3.890;2023-03-01T01:13:03;9.20;99.90
25436;DHT22;13363;52.772;-3.890;2023-03-01T01:15:33;9.10;99.90
25436;DHT22;13363;52.772;-3.890;2023-03-01T01:17:59;9.10;99.90
25436;DHT22;13363;52.772;-3.890;2023-03-01T01:20:25;9.20;99.90
25436;DHT22;13363;52.772;-3.890;2023-03-01T01:22:50;9.10;99.90
25436;DHT22;13363;52.772;-3.890;2023-03-01T01:25:17;9.10;99.90
25436;DHT22;13363;52.772;-3.890;2023-03-01T01:27:42;9.10;99.90
25436;DHT22;13363;52.772;-3.890;2023-03-01T01:30:09;9.10;99.90
25436;DHT22;13363;52.772;-3.890;2023-03-01T01:32:35;9.10;99.90
25436;DHT22;13363;52.772;-3.890;2023-03-01T01:35:01;9.00;99.90
25436;DHT22;13363;52.772;-3.890;2023-03-01T01:37:26;9.00;99.90
25436;DHT22;13363;52.772;-3.890;2023-03-01T01:39:59;9.00;99.90
25436;DHT22;13363;52.772;-3.890;2023-03-01T01:42:26;9.00;99.90
25436;DHT22;13363;52.772;-3.890;2023-03-01T01:45:28;9.00;99.90
25436;DHT22;13363;52.772;-3.890;2023-03-01T01:47:57;9.10;99.90
25436;DHT22;13363;52.772;-3.890;2023-03-01T01:50:24;9.00;99.90
25436;DHT22;13363;52.772;-3.890;2023-03-01T01:52:51;8.90;99.90
25436;DHT22;13363;52.772;-3.890;2023-03-01T01:55:24;9.00;99.90
25436;DHT22;13363;52.772;-3.890;2023-03-01T01:57:56;8.90;99.90
25436;DHT22;13363;52.772;-3.890;2023-03-01T02:00:27;8.90;99.90
25436;DHT22;13363;52.772;-3.890;2023-03-01T02:03:06;8.90;99.90
25436;DHT22;13363;52.772;-3.890;2023-03-01T02:05:36;9.00;99.90
25436;DHT22;13363;52.772;-3.890;2023-03-01T02:08:03;8.90;99.90
25436;DHT22;13363;52.772;-3.890;2023-03-01T02:10:32;8.90;99.90
25436;DHT22;13363;52.772;-3.890;2023-03-01T02:13:00;8.90;99.90
25436;DHT22;13363;52.772;-3.890;2023-03-01T02:15:26;8.90;99.90
25436;DHT22;13363;52.772;-3.890;2023-03-01T02:17:53;8.80;99.90
25436;DHT22;13363;52.772;-3.890;2023-03-01T02:20:23;8.80;99.90
25436;DHT22;13363;52.772;-3.890;2023-03-01T02:22:52;8.80;99.90
25436;DHT22;13363;52.772;-3.890;2023-03-01T02:25:44;8.80;99.90
25436;DHT22;13363;52.772;-3.890;2023-03-01T02:30:45;8.80;99.90
25436;DHT22;13363;52.772;-3.890;2023-03-01T02:33:31;8.80;99.90
25436;DHT22;13363;52.772;-3.890;2023-03-01T02:36:10;8.80;99.90
25436;DHT22;13363;52.772;-3.890;2023-03-01T02:38:42;8.80;99.90
25436;DHT22;13363;52.772;-3.890;2023-03-01T02:41:09;8.80;99.90
25436;DHT22;13363;52.772;-3.890;2023-03-01T02:43:37;8.80;99.90
25436;DHT22;13363;52.772;-3.890;2023-03-01T02:46:07;8.80;99.90
25436;DHT22;13363;52.772;-3.890;2023-03-01T02:48:48;8.80;99.90
25436;DHT22;13363;52.772;-3.890;2023-03-01T02:56:22;8.60;99.90
25436;DHT22;13363;52.772;-3.890;2023-03-01T02:58:48;8.60;99.90
25436;DHT22;13363;52.772;-3.890;2023-03-01T03:01:18;8.50;99.90
25436;DHT22;13363;52.772;-3.890;2023-03-01T03:03:44;8.50;99.90
25436;DHT22;13363;52.772;-3.890;2023-03-01T03:06:10;8.60;99.90
25436;DHT22;13363;52.772;-3.890;2023-03-01T03:08:36;8.50;99.90
25436;DHT22;13363;52.772;-3.890;2023-03-01T03:11:02;8.50;99.90
25436;DHT22;13363;52.772;-3.890;2023-03-01T03:13:28;8.50;99.90
25436;DHT22;13363;52.772;-3.890;2023-03-01T03:15:55;8.50;99.90
25436;DHT22;13363;52.772;-3.890;2023-03-01T03:18:22;8.50;99.90
25436;DHT22;13363;52.772;-3.890;2023-03-01T03:20:51;8.50;99.90
25436;DHT22;13363;52.772;-3.890;2023-03-01T03:23:19;8.60;99.90
25436;DHT22;13363;52.772;-3.890;2023-03-01T03:25:48;8.60;99.90
25436;DHT22;13363;52.772;-3.890;2023-03-01T03:28:14;8.60;99.90
25436;DHT22;13363;52.772;-3.890;2023-03-01T03:30:42;8.60;99.90
25436;DHT22;13363;52.772;-3.890;2023-03-01T03:33:09;8.50;99.90
25436;DHT22;13363;52.772;-3.890;2023-03-01T03:35:43;8.50;99.90
25436;DHT22;13363;52.772;-3.890;2023-03-01T03:38:11;8.40;99.90
25436;DHT22;13363;52.772;-3.890;2023-03-01T03:40:49;8.40;99.90
25436;DHT22;13363;52.772;-3.890;2023-03-01T03:43:20;8.40;99.90
25436;DHT22;13363;52.772;-3.890;2023-03-01T03:45:47;8.40;99.90
25436;DHT22;13363;52.772;-3.890;2023-03-01T03:48:14;8.50;99.90
25436;DHT22;13363;52.772;-3.890;2023-03-01T03:50:40;8.40;99.90
25436;DHT22;13363;52.772;-3.890;2023-03-01T03:53:09;8.40;99.90
25436;DHT22;13363;52.772;-3.890;2023-03-01T03:55:35;8.30;99.90
25436;DHT22;13363;52.772;-3.890;2023-03-01T03:58:05;8.40;99.90
25436;DHT22;13363;52.772;-3.890;2023-03-01T04:00:34;8.30;99.90
25436;DHT22;13363;52.772;-3.890;2023-03-01T04:03:00;8.20;99.90
25436;DHT22;13363;52.772;-3.890;2023-03-01T04:05:27;8.10;99.90
25436;DHT22;13363;52.772;-3.890;2023-03-01T04:07:52;8.20;99.90
25436;DHT22;13363;52.772;-3.890;2023-03-01T04:10:31;8.20;99.90
25436;DHT22;13363;52.772;-3.890;2023-03-01T04:12:58;8.20;99.90
25436;DHT22;13363;52.772;-3.890;2023-03-01T04:15:27;8.20;99.90
25436;DHT22;13363;52.772;-3.890;2023-03-01T04:17:54;8.10;99.90
25436;DHT22;13363;52.772;-3.890;2023-03-01T04:20:25;8.10;99.90
25436;DHT22;13363;52.772;-3.890;2023-03-01T04:22:56;8.00;99.90
25436;DHT22;13363;52.772;-3.890;2023-03-01T04:25:25;7.90;99.90
25436;DHT22;13363;52.772;-3.890;2023-03-01T04:27:51;7.90;99.90
25436;DHT22;13363;52.772;-3.890;2023-03-01T04:30:20;7.90;99.90
25436;DHT22;13363;52.772;-3.890;2023-03-01T04:32:46;7.90;99.90
25436;DHT22;13363;52.772;-3.890;2023-03-01T04:35:11;7.80;99.90
25436;DHT22;13363;52.772;-3.890;2023-03-01T04:37:37;7.90;99.90
25436;DHT22;13363;52.772;-3.890;2023-03-01T04:40:03;7.80;99.90
25436;DHT22;13363;52.772;-3.890;2023-03-01T04:42:41;7.80;99.90
25436;DHT22;13363;52.772;-3.890;2023-03-01T04:45:08;7.90;99.90
25436;DHT22;13363;52.772;-3.890;2023-03-01T04:47:42;7.90;99.90
25436;DHT22;13363;52.772;-3.890;2023-03-01T04:50:11;7.90;99.90
25436;DHT22;13363;52.772;-3.890;2023-03-01T04:52:37;7.90;99.90
25436;DHT22;13363;52.772;-3.890;2023-03-01T04:55:04;7.90;99.90
25436;DHT22;13363;52.772;-3.890;2023-03-01T04:57:30;7.80;99.90
25436;DHT22;13363;52.772;-3.890;2023-03-01T04:59:56;7.80;99.90
25436;DHT22;13363;52.772;-3.890;2023-03-01T05:02:22;7.80;99.90
25436;DHT22;13363;52.772;-3.890;2023-03-01T05:04:48;7.80;99.90
25436;DHT22;13363;52.772;-3.890;2023-03-01T05:07:13;7.70;99.90
25436;DHT22;13363;52.772;-3.890;2023-03-01T05:09:45;7.70;99.90
25436;DHT22;13363;52.772;-3.890;2023-03-01T05:12:12;7.70;99.90
25436;DHT22;13363;52.772;-3.890;2023-03-01T05:14:38;7.70;99.90
25436;DHT22;13363;52.772;-3.890;2023-03-01T05:17:04;7.70;99.90
25436;DHT22;13363;52.772;-3.890;2023-03-01T05:19:31;7.60;99.90
25436;DHT22;13363;52.772;-3.890;2023-03-01T05:21:57;7.60;99.90
25436;DHT22;13363;52.772;-3.890;2023-03-01T05:24:32;7.60;99.90
25436;DHT22;13363;52.772;-3.890;2023-03-01T05:26:58;7.60;99.90
25436;DHT22;13363;52.772;-3.890;2023-03-01T05:29:25;7.60;99.90
25436;DHT22;13363;52.772;-3.890;2023-03-01T05:31:56;7.60;99.90
25436;DHT22;13363;52.772;-3.890;2023-03-01T05:34:24;7.60;99.90
25436;DHT22;13363;52.772;-3.890;2023-03-01T05:36:51;7.60;99.90
25436;DHT22;13363;52.772;-3.890;2023-03-01T05:39:22;7.50;99.90
25436;DHT22;13363;52.772;-3.890;2023-03-01T05:41:52;7.50;99.90
25436;DHT22;13363;52.772;-3.890;2023-03-01T05:44:18;7.50;99.90
25436;DHT22;13363;52.772;-3.890;2023-03-01T05:46:44;7.50;99.90
25436;DHT22;13363;52.772;-3.890;2023-03-01T05:49:11;7.50;99.90
25436;DHT22;13363;52.772;-3.890;2023-03-01T05:51:41;7.40;99.90
25436;DHT22;13363;52.772;-3.890;2023-03-01T05:54:08;7.40;99.90
25436;DHT22;13363;52.772;-3.890;2023-03-01T05:56:35;7.40;99.90
25436;DHT22;13363;52.772;-3.890;2023-03-01T05:59:03;7.50;99.90
25436;DHT22;13363;52.772;-3.890;2023-03-01T06:01:31;7.50;99.90
25436;DHT22;13363;52.772;-3.890;2023-03-01T06:03:57;7.50;99.90
25436;DHT22;13363;52.772;-3.890;2023-03-01T06:06:23;7.50;99.90
25436;DHT22;13363;52.772;-3.890;2023-03-01T06:08:49;7.40;99.90
25436;DHT22;13363;52.772;-3.890;2023-03-01T06:11:15;7.50;99.90
25436;DHT22;13363;52.772;-3.890;2023-03-01T06:13:43;7.50;99.90
25436;DHT22;13363;52.772;-3.890;2023-03-01T06:16:09;7.50;99.90
25436;DHT22;13363;52.772;-3.890;2023-03-01T06:18:36;7.50;99.90
25436;DHT22;13363;52.772;-3.890;2023-03-01T06:21:02;7.50;99.90
25436;DHT22;13363;52.772;-3.890;2023-03-01T06:23:28;7.50;99.90
25436;DHT22;13363;52.772;-3.890;2023-03-01T06:25:54;7.50;99.90
25436;DHT22;13363;52.772;-3.890;2023-03-01T06:28:20;7.50;99.90
25436;DHT22;13363;52.772;-3.890;2023-03-01T06:30:46;7.50;99.90
25436;DHT22;13363;52.772;-3.890;2023-03-01T06:33:12;7.50;99.90
25436;DHT22;13363;52.772;-3.890;2023-03-01T06:35:38;7.40;99.90
25436;DHT22;13363;52.772;-3.890;2023-03-01T06:38:05;7.40;99.90
25436;DHT22;13363;52.772;-3.890;2023-03-01T06:40:31;7.50;99.90
25436;DHT22;13363;52.772;-3.890;2023-03-01T06:42:58;7.50;99.90
25436;DHT22;13363;52.772;-3.890;2023-03-01T06:45:24;7.40;99.90
25436;DHT22;13363;52.772;-3.890;2023-03-01T06:47:50;7.40;99.90
25436;DHT22;13363;52.772;-3.890;2023-03-01T06:50:17;7.40;99.90
25436;DHT22;13363;52.772;-3.890;2023-03-01T06:52:44;7.50;99.90
25436;DHT22;13363;52.772;-3.890;2023-03-01T06:55:11;7.40;99.90
25436;DHT22;13363;52.772;-3.890;2023-03-01T06:57:37;7.40;99.90
25436;DHT22;13363;52.772;-3.890;2023-03-01T07:00:04;7.40;99.90
25436;DHT22;13363;52.772;-3.890;2023-03-01T07:02:31;7.40;99.90
25436;DHT22;13363;52.772;-3.890;2023-03-01T07:04:57;7.30;99.90
25436;DHT22;13363;52.772;-3.890;2023-03-01T07:07:23;7.30;99.90
25436;DHT22;13363;52.772;-3.890;2023-03-01T07:09:49;7.40;99.90
25436;DHT22;13363;52.772;-3.890;2023-03-01T07:12:15;7.30;99.90
25436;DHT22;13363;52.772;-3.890;2023-03-01T07:14:41;7.30;99.90
25436;DHT22;13363;52.772;-3.890;2023-03-01T07:17:07;7.30;99.90
25436;DHT22;13363;52.772;-3.890;2023-03-01T07:19:33;7.40;99.90
25436;DHT22;13363;52.772;-3.890;2023-03-01T07:21:58;7.40;99.90
25436;DHT22;13363;52.772;-3.890;2023-03-01T07:24:24;7.40;99.90
25436;DHT22;13363;52.772;-3.890;2023-03-01T07:26:51;7.40;99.90
25436;DHT22;13363;52.772;-3.890;2023-03-01T07:29:17;7.40;99.90
25436;DHT22;13363;52.772;-3.890;2023-03-01T07:31:43;7.40;99.90
25436;DHT22;13363;52.772;-3.890;2023-03-01T07:34:10;7.50;99.90
25436;DHT22;13363;52.772;-3.890;2023-03-01T07:36:36;7.50;99.90
25436;DHT22;13363;52.772;-3.890;2023-03-01T07:39:03;7.60;99.90
25436;DHT22;13363;52.772;-3.890;2023-03-01T07:41:29;7.60;99.90
25436;DHT22;13363;52.772;-3.890;2023-03-01T07:43:55;7.60;99.90
25436;DHT22;13363;52.772;-3.890;2023-03-01T07:46:21;7.70;99.90
25436;DHT22;13363;52.772;-3.890;2023-03-01T07:48:47;7.60;99.90
25436;DHT22;13363;52.772;-3.890;2023-03-01T07:51:13;7.60;99.90
25436;DHT22;13363;52.772;-3.890;2023-03-01T07:53:39;7.60;99.90
25436;DHT22;13363;52.772;-3.890;2023-03-01T07:56:07;7.70;99.90
25436;DHT22;13363;52.772;-3.890;2023-03-01T07:58:34;7.70;99.90
25436;DHT22;13363;52.772;-3.890;2023-03-01T08:01:02;7.70;99.90
25436;DHT22;13363;52.772;-3.890;2023-03-01T08:03:28;7.70;99.90
25436;DHT22;13363;52.772;-3.890;2023-03-01T08:05:54;7.80;99.90
25436;DHT22;13363;52.772;-3.890;2023-03-01T08:08:20;7.80;99.90
25436;DHT22;13363;52.772;-3.890;2023-03-01T08:10:46;7.90;99.90
25436;DHT22;13363;52.772;-3.890;2023-03-01T08:13:11;7.90;99.90
25436;DHT22;13363;52.772;-3.890;2023-03-01T08:15:37;7.90;99.90
25436;DHT22;13363;52.772;-3.890;2023-03-01T08:18:03;7.90;99.90
25436;DHT22;13363;52.772;-3.890;2023-03-01T08:20:29;7.90;99.90
25436;DHT22;13363;52.772;-3.890;2023-03-01T08:22:55;7.90;99.90
25436;DHT22;13363;52.772;-3.890;2023-03-01T08:25:23;8.00;99.90
25436;DHT22;13363;52.772;-3.890;2023-03-01T08:27:48;8.00;99.90
25436;DHT22;13363;52.772;-3.890;2023-03-01T08:30:15;8.00;99.90
25436;DHT22;13363;52.772;-3.890;2023-03-01T08:32:41;8.00;99.90
25436;DHT22;13363;52.772;-3.890;2023-03-01T08:35:07;8.00;99.90
25436;DHT22;13363;52.772;-3.890;2023-03-01T08:37:33;8.10;99.90
25436;DHT22;13363;52.772;-3.890;2023-03-01T08:40:00;8.10;99.90
25436;DHT22;13363;52.772;-3.890;2023-03-01T08:42:26;8.20;99.90
25436;DHT22;13363;52.772;-3.890;2023-03-01T08:44:52;8.30;99.90
25436;DHT22;13363;52.772;-3.890;2023-03-01T08:47:18;8.30;99.90
25436;DHT22;13363;52.772;-3.890;2023-03-01T08:49:43;8.30;99.90
25436;DHT22;13363;52.772;-3.890;2023-03-01T08:52:09;8.30;99.90
25436;DHT22;13363;52.772;-3.890;2023-03-01T08:54:35;8.40;99.90
25436;DHT22;13363;52.772;-3.890;2023-03-01T08:57:02;8.40;99.90
25436;DHT22;13363;52.772;-3.890;2023-03-01T08:59:28;8.50;99.90
25436;DHT22;13363;52.772;-3.890;2023-03-01T09:01:55;8.50;99.90
25436;DHT22;13363;52.772;-3.890;2023-03-01T09:04:21;8.50;99.90
25436;DHT22;13363;52.772;-3.890;2023-03-01T09:06:47;8.50;99.90
25436;DHT22;13363;52.772;-3.890;2023-03-01T09:09:16;8.60;99.90
25436;DHT22;13363;52.772;-3.890;2023-03-01T09:11:43;8.70;99.90
25436;DHT22;13363;52.772;-3.890;2023-03-01T09:14:14;8.80;99.90
25436;DHT22;13363;52.772;-3.890;2023-03-01T09:16:41;8.60;99.90
25436;DHT22;13363;52.772;-3.890;2023-03-01T09:19:07;8.70;99.90
25436;DHT22;13363;52.772;-3.890;2023-03-01T09:21:33;8.70;99.90
25436;DHT22;13363;52.772;-3.890;2023-03-01T09:23:59;8.70;99.90
25436;DHT22;13363;52.772;-3.890;2023-03-01T09:26:25;8.70;99.90
25436;DHT22;13363;52.772;-3.890;2023-03-01T09:28:55;8.70;99.90
25436;DHT22;13363;52.772;-3.890;2023-03-01T09:31:23;8.80;99.90
25436;DHT22;13363;52.772;-3.890;2023-03-01T09:33:51;8.80;99.90
25436;DHT22;13363;52.772;-3.890;2023-03-01T09:36:20;8.80;99.90
25436;DHT22;13363;52.772;-3.890;2023-03-01T09:38:47;8.90;99.90
25436;DHT22;13363;52.772;-3.890;2023-03-01T09:43:52;9.10;99.90
25436;DHT22;13363;52.772;-3.890;2023-03-01T09:46:20;9.20;99.90
25436;DHT22;13363;52.772;-3.890;2023-03-01T09:49:27;9.30;99.90
25436;DHT22;13363;52.772;-3.890;2023-03-01T09:54:38;9.30;99.90
25436;DHT22;13363;52.772;-3.890;2023-03-01T09:57:06;9.40;99.90
25436;DHT22;13363;52.772;-3.890;2023-03-01T09:59:46;9.60;99.90
25436;DHT22;13363;52.772;-3.890;2023-03-01T10:05:10;9.90;99.90
25436;DHT22;13363;52.772;-3.890;2023-03-01T10:10:08;10.60;99.90
25436;DHT22;13363;52.772;-3.890;2023-03-01T10:12:37;10.70;99.90
25436;DHT22;13363;52.772;-3.890;2023-03-01T10:17:55;10.90;99.90
25436;DHT22;13363;52.772;-3.890;2023-03-01T10:20:24;11.70;99.90
25436;DHT22;13363;52.772;-3.890;2023-03-01T10:22:51;12.20;99.90
25436;DHT22;13363;52.772;-3.890;2023-03-01T10:30:40;11.10;99.90
25436;DHT22;13363;52.772;-3.890;2023-03-01T10:35:47;11.40;99.90
25436;DHT22;13363;52.772;-3.890;2023-03-01T10:38:15;11.40;99.90
25436;DHT22;13363;52.772;-3.890;2023-03-01T10:40:56;11.40;99.90
25436;DHT22;13363;52.772;-3.890;2023-03-01T10:43:27;11.60;99.90
25436;DHT22;13363;52.772;-3.890;2023-03-01T10:45:55;11.80;99.90
25436;DHT22;13363;52.772;-3.890;2023-03-01T10:48:26;11.20;99.90
25436;DHT22;13363;52.772;-3.890;2023-03-01T10:53:48;11.10;99.90
25436;DHT22;13363;52.772;-3.890;2023-03-01T10:56:15;11.30;99.90
25436;DHT22;13363;52.772;-3.890;2023-03-01T10:59:02;11.50;99.90
25436;DHT22;13363;52.772;-3.890;2023-03-01T11:01:33;11.80;99.90
25436;DHT22;13363;52.772;-3.890;2023-03-01T11:04:17;12.20;99.90
25436;DHT22;13363;52.772;-3.890;2023-03-01T11:06:43;12.50;99.90
25436;DHT22;13363;52.772;-3.890;2023-03-01T11:09:23;12.20;99.90
25436;DHT22;13363;52.772;-3.890;2023-03-01T11:11:57;11.70;99.90
25436;DHT22;13363;52.772;-3.890;2023-03-01T11:14:36;11.50;99.90
25436;DHT22;13363;52.772;-3.890;2023-03-01T11:19:37;11.10;99.90
25436;DHT22;13363;52.772;-3.890;2023-03-01T11:22:12;10.80;99.90
25436;DHT22;13363;52.772;-3.890;2023-03-01T11:24:47;10.60;99.90
25436;DHT22;13363;52.772;-3.890;2023-03-01T11:27:29;10.50;99.90
25436;DHT22;13363;52.772;-3.890;2023-03-01T11:30:03;10.30;99.90
25436;DHT22;13363;52.772;-3.890;2023-03-01T11:32:38;10.30;99.90
25436;DHT22;13363;52.772;-3.890;2023-03-01T11:35:21;10.20;99.90
25436;DHT22;13363;52.772;-3.890;2023-03-01T11:40:26;10.20;99.90
25436;DHT22;13363;52.772;-3.890;2023-03-01T11:45:57;10.10;99.90
25436;DHT22;13363;52.772;-3.890;2023-03-01T11:48:39;10.00;99.90
25436;DHT22;13363;52.772;-3.890;2023-03-01T11:51:22;10.10;99.90
25436;DHT22;13363;52.772;-3.890;2023-03-01T12:00:14;9.90;99.90
25436;DHT22;13363;52.772;-3.890;2023-03-01T12:14:40;9.80;99.90
25436;DHT22;13363;52.772;-3.890;2023-03-01T12:20:20;9.80;99.90
25436;DHT22;13363;52.772;-3.890;2023-03-01T12:25:48;9.90;99.90
25436;DHT22;13363;52.772;-3.890;2023-03-01T12:33:53;10.00;99.90
25436;DHT22;13363;52.772;-3.890;2023-03-01T12:36:53;10.10;99.90
25436;DHT22;13363;52.772;-3.890;2023-03-01T12:42:48;10.50;99.90
25436;DHT22;13363;52.772;-3.890;2023-03-01T12:48:14;10.30;99.90
25436;DHT22;13363;52.772;-3.890;2023-03-01T12:50:47;10.40;99.90
25436;DHT22;13363;52.772;-3.890;2023-03-01T12:53:37;10.30;99.90
25436;DHT22;13363;52.772;-3.890;2023-03-01T12:56:32;10.20;99.90
25436;DHT22;13363;52.772;-3.890;2023-03-01T12:59:33;10.00;99.90
25436;DHT22;13363;52.772;-3.890;2023-03-01T13:13:35;9.90;99.90
25436;DHT22;13363;52.772;-3.890;2023-03-01T13:15:35;10.00;99.90
25436;DHT22;13363;52.772;-3.890;2023-03-01T13:20:55;10.00;99.90
25436;DHT22;13363;52.772;-3.890;2023-03-01T13:26:16;9.90;99.90
25436;DHT22;13363;52.772;-3.890;2023-03-01T13:33:45;10.20;99.90
25436;DHT22;13363;52.772;-3.890;2023-03-01T13:36:45;10.20;99.90
25436;DHT22;13363;52.772;-3.890;2023-03-01T13:39:03;10.20;99.90
25436;DHT22;13363;52.772;-3.890;2023-03-01T13:46:47;10.10;99.90
25436;DHT22;13363;52.772;-3.890;2023-03-01T13:49:19;10.10;99.90
25436;DHT22;13363;52.772;-3.890;2023-03-01T13:51:47;10.00;99.90
25436;DHT22;13363;52.772;-3.890;2023-03-01T13:54:16;10.00;99.90
25436;DHT22;13363;52.772;-3.890;2023-03-01T13:56:44;10.00;99.90
25436;DHT22;13363;52.772;-3.890;2023-03-01T13:59:20;10.00;99.90
25436;DHT22;13363;52.772;-3.890;2023-03-01T14:01:55;9.90;99.90
25436;DHT22;13363;52.772;-3.890;2023-03-01T14:04:27;9.90;99.90
25436;DHT22;13363;52.772;-3.890;2023-03-01T14:07:16;9.80;99.90
25436;DHT22;13363;52.772;-3.890;2023-03-01T14:09:45;9.80;99.90
25436;DHT22;13363;52.772;-3.890;2023-03-01T14:12:21;9.80;99.90
25436;DHT22;13363;52.772;-3.890;2023-03-01T14:15:02;9.80;99.90
25436;DHT22;13363;52.772;-3.890;2023-03-01T14:20:25;10.00;99.90
25436;DHT22;13363;52.772;-3.890;2023-03-01T14:22:54;9.90;99.90
25436;DHT22;13363;52.772;-3.890;2023-03-01T14:25:25;9.90;99.90
25436;DHT22;13363;52.772;-3.890;2023-03-01T14:27:56;9.80;99.90
25436;DHT22;13363;52.772;-3.890;2023-03-01T14:30:30;9.80;99.90
25436;DHT22;13363;52.772;-3.890;2023-03-01T14:33:02;9.80;99.90
25436;DHT22;13363;52.772;-3.890;2023-03-01T14:35:38;9.80;99.90
25436;DHT22;13363;52.772;-3.890;2023-03-01T14:38:04;9.90;99.90
25436;DHT22;13363;52.772;-3.890;2023-03-01T14:40:32;9.90;99.90
25436;DHT22;13363;52.772;-3.890;2023-03-01T14:43:01;9.90;99.90
25436;DHT22;13363;52.772;-3.890;2023-03-01T14:45:29;10.00;99.90
25436;DHT22;13363;52.772;-3.890;2023-03-01T14:47:59;10.10;99.90
25436;DHT22;13363;52.772;-3.890;2023-03-01T14:50:31;10.10;99.90
25436;DHT22;13363;52.772;-3.890;2023-03-01T14:53:05;10.10;99.90
25436;DHT22;13363;52.772;-3.890;2023-03-01T14:55:35;10.10;99.90
25436;DHT22;13363;52.772;-3.890;2023-03-01T14:58:04;10.20;99.90
25436;DHT22;13363;52.772;-3.890;2023-03-01T15:00:32;10.10;99.90
25436;DHT22;13363;52.772;-3.890;2023-03-01T15:03:14;10.10;99.90
25436;DHT22;13363;52.772;-3.890;2023-03-01T15:05:44;10.00;99.90
25436;DHT22;13363;52.772;-3.890;2023-03-01T15:08:22;10.00;99.90
25436;DHT22;13363;52.772;-3.890;2023-03-01T15:11:04;10.10;99.90
25436;DHT22;13363;52.772;-3.890;2023-03-01T15:13:32;10.10;99.90
25436;DHT22;13363;52.772;-3.890;2023-03-01T15:16:13;10.50;99.90
25436;DHT22;13363;52.772;-3.890;2023-03-01T15:21:23;10.10;1.00
25436;DHT22;13363;52.772;-3.890;2023-03-01T15:24:36;10.10;1.00
25436;DHT22;13363;52.772;-3.890;2023-03-01T15:26:50;10.10;1.00
25436;DHT22;13363;52.772;-3.890;2023-03-01T15:29:24;10.20;1.00
25436;DHT22;13363;52.772;-3.890;2023-03-01T15:32:04;10.10;1.00
25436;DHT22;13363;52.772;-3.890;2023-03-01T15:34:34;10.00;1.00
25436;DHT22;13363;52.772;-3.890;2023-03-01T15:37:04;10.00;5.50
25436;DHT22;13363;52.772;-3.890;2023-03-01T15:41:59;10.10;1.00
25436;DHT22;13363;52.772;-3.890;2023-03-01T15:44:26;10.10;1.00
25436;DHT22;13363;52.772;-3.890;2023-03-01T15:46:52;10.10;1.00
25436;DHT22;13363;52.772;-3.890;2023-03-01T15:49:41;10.10;54.30
25436;DHT22;13363;52.772;-3.890;2023-03-01T15:52:17;10.00;77.00
25436;DHT22;13363;52.772;-3.890;2023-03-01T15:54:44;10.00;99.90
25436;DHT22;13363;52.772;-3.890;2023-03-01T15:57:14;10.00;99.90
25436;DHT22;13363;52.772;-3.890;2023-03-01T15:59:42;10.00;99.90
25436;DHT22;13363;52.772;-3.890;2023-03-01T16:02:12;9.90;99.90
25436;DHT22;13363;52.772;-3.890;2023-03-01T16:04:39;9.80;99.90
25436;DHT22;13363;52.772;-3.890;2023-03-01T16:07:05;9.70;99.90
25436;DHT22;13363;52.772;-3.890;2023-03-01T16:09:31;9.80;99.90
25436;DHT22;13363;52.772;-3.890;2023-03-01T16:11:58;9.70;99.90
25436;DHT22;13363;52.772;-3.890;2023-03-01T16:14:23;9.80;99.90
25436;DHT22;13363;52.772;-3.890;2023-03-01T16:16:49;9.80;99.90
25436;DHT22;13363;52.772;-3.890;2023-03-01T16:19:15;9.80;99.90
25436;DHT22;13363;52.772;-3.890;2023-03-01T16:21:42;9.90;99.90
25436;DHT22;13363;52.772;-3.890;2023-03-01T16:24:09;9.80;99.90
25436;DHT22;13363;52.772;-3.890;2023-03-01T16:26:36;9.80;99.90
25436;DHT22;13363;52.772;-3.890;2023-03-01T16:29:03;9.80;99.90
25436;DHT22;13363;52.772;-3.890;2023-03-01T16:31:29;9.80;99.90
25436;DHT22;13363;52.772;-3.890;2023-03-01T16:33:56;9.80;99.90
25436;DHT22;13363;52.772;-3.890;2023-03-01T16:36:24;9.70;99.90
25436;DHT22;13363;52.772;-3.890;2023-03-01T16:38:52;9.70;99.90
25436;DHT22;13363;52.772;-3.890;2023-03-01T16:41:20;9.70;99.90
25436;DHT22;13363;52.772;-3.890;2023-03-01T16:43:47;9.70;99.90
25436;DHT22;13363;52.772;-3.890;2023-03-01T16:46:17;9.60;99.90
25436;DHT22;13363;52.772;-3.890;2023-03-01T16:48:43;9.60;99.90
25436;DHT22;13363;52.772;-3.890;2023-03-01T16:51:09;9.70;99.90
25436;DHT22;13363;52.772;-3.890;2023-03-01T16:53:36;9.60;99.90
25436;DHT22;13363;52.772;-3.890;2023-03-01T16:56:05;9.60;99.90
25436;DHT22;13363;52.772;-3.890;2023-03-01T16:58:32;9.50;99.90
25436;DHT22;13363;52.772;-3.890;2023-03-01T17:01:13;9.40;99.90
25436;DHT22;13363;52.772;-3.890;2023-03-01T17:03:41;9.40;99.90
25436;DHT22;13363;52.772;-3.890;2023-03-01T17:06:10;9.30;99.90
25436;DHT22;13363;52.772;-3.890;2023-03-01T17:08:37;9.30;99.90
25436;DHT22;13363;52.772;-3.890;2023-03-01T17:11:23;9.30;99.90
25436;DHT22;13363;52.772;-3.890;2023-03-01T17:13:49;9.30;99.90
25436;DHT22;13363;52.772;-3.890;2023-03-01T17:16:17;9.30;99.90
25436;DHT22;13363;52.772;-3.890;2023-03-01T17:18:44;9.40;99.90
25436;DHT22;13363;52.772;-3.890;2023-03-01T17:21:11;9.40;99.90
25436;DHT22;13363;52.772;-3.890;2023-03-01T17:23:41;9.40;99.90
25436;DHT22;13363;52.772;-3.890;2023-03-01T17:26:08;9.40;99.90
25436;DHT22;13363;52.772;-3.890;2023-03-01T17:28:35;9.20;99.90
25436;DHT22;13363;52.772;-3.890;2023-03-01T17:31:04;9.50;99.90
25436;DHT22;13363;52.772;-3.890;2023-03-01T17:33:31;9.40;99.90
25436;DHT22;13363;52.772;-3.890;2023-03-01T17:35:57;9.40;99.90